createdAt,value
2023-07-29T00:00:07.740Z,20.02
2023-07-29T00:00:18.058Z,20.02
2023-07-29T00:00:28.435Z,20.00
2023-07-29T00:00:38.696Z,20.02
2023-07-29T00:00:48.974Z,20.02
2023-07-29T00:00:59.229Z,20.00
2023-07-29T00:01:09.501Z,19.99
2023-07-29T00:01:19.793Z,20.00
2023-07-29T00:01:31.960Z,20.00
2023-07-29T00:01:40.487Z,20.03
2023-07-29T00:01:50.830Z,20.03
2023-07-29T00:02:01.179Z,20.00
2023-07-29T00:02:11.492Z,20.00
2023-07-29T00:02:21.757Z,20.00
2023-07-29T00:02:32.123Z,20.00
2023-07-29T00:02:42.495Z,20.02
2023-07-29T00:02:52.854Z,20.02
2023-07-29T00:03:03.188Z,20.00
2023-07-29T00:03:13.682Z,20.02
2023-07-29T00:03:24.068Z,20.03
2023-07-29T00:03:34.365Z,20.00
2023-07-29T00:03:44.441Z,20.00
2023-07-29T00:03:54.698Z,20.02
2023-07-29T00:04:05.006Z,20.02
2023-07-29T00:04:15.294Z,20.02
2023-07-29T00:04:25.602Z,20.02
2023-07-29T00:04:35.896Z,20.00
2023-07-29T00:04:46.156Z,20.03
2023-07-29T00:04:56.437Z,20.00
2023-07-29T00:05:06.704Z,20.02
2023-07-29T00:05:17.042Z,20.02
2023-07-29T00:05:27.287Z,20.00
2023-07-29T00:05:37.544Z,20.02
2023-07-29T00:05:47.806Z,20.00
2023-07-29T00:05:58.065Z,20.02
2023-07-29T00:06:08.318Z,20.02
2023-07-29T00:06:19.653Z,20.02
2023-07-29T00:06:28.836Z,20.02
2023-07-29T00:06:39.314Z,20.02
2023-07-29T00:06:49.489Z,20.02
2023-07-29T00:06:59.755Z,20.00
2023-07-29T00:07:10.014Z,20.00
2023-07-29T00:07:20.272Z,20.03
2023-07-29T00:07:30.538Z,20.02
2023-07-29T00:07:40.792Z,20.00
2023-07-29T00:07:51.051Z,20.00
2023-07-29T00:08:01.319Z,20.02
2023-07-29T00:08:11.585Z,20.00
2023-07-29T00:08:21.840Z,20.00
2023-07-29T00:08:32.112Z,20.00
2023-07-29T00:08:42.471Z,20.03
2023-07-29T00:08:52.694Z,20.03
2023-07-29T00:09:02.983Z,20.02
2023-07-29T00:09:13.310Z,20.02
2023-07-29T00:09:23.562Z,20.02
2023-07-29T00:09:33.849Z,20.02
2023-07-29T00:09:44.087Z,20.00
2023-07-29T00:09:54.353Z,20.04
2023-07-29T00:10:04.617Z,20.02
2023-07-29T00:10:14.869Z,20.02
2023-07-29T00:10:25.128Z,20.00
2023-07-29T00:10:36.880Z,20.02
2023-07-29T00:10:45.632Z,20.00
2023-07-29T00:10:55.891Z,20.02
2023-07-29T00:11:06.166Z,20.02
2023-07-29T00:11:16.430Z,20.00
2023-07-29T00:11:26.694Z,20.00
2023-07-29T00:11:36.944Z,20.02
2023-07-29T00:11:47.196Z,20.03
2023-07-29T00:11:57.559Z,20.00
2023-07-29T00:12:07.824Z,20.02
2023-07-29T00:12:18.101Z,20.02
2023-07-29T00:12:28.352Z,20.00
2023-07-29T00:12:38.604Z,20.00
2023-07-29T00:12:48.872Z,20.02
2023-07-29T00:12:59.137Z,20.00
2023-07-29T00:13:09.466Z,20.02
2023-07-29T00:13:22.223Z,20.00
2023-07-29T00:13:30.053Z,20.00
2023-07-29T00:13:40.311Z,19.99
2023-07-29T00:13:50.602Z,20.00
2023-07-29T00:14:00.864Z,20.00
2023-07-29T00:14:11.106Z,20.00
2023-07-29T00:14:21.382Z,20.00
2023-07-29T00:14:31.623Z,20.00
2023-07-29T00:14:41.886Z,20.00
2023-07-29T00:14:52.377Z,20.00
2023-07-29T00:15:02.432Z,19.99
2023-07-29T00:15:12.720Z,20.00
2023-07-29T00:15:22.982Z,19.99
2023-07-29T00:15:33.274Z,19.99
2023-07-29T00:15:43.534Z,20.00
2023-07-29T00:15:53.784Z,20.00
2023-07-29T00:16:04.039Z,20.00
2023-07-29T00:16:14.313Z,19.99
2023-07-29T00:16:24.615Z,19.99
2023-07-29T00:16:35.238Z,20.00
2023-07-29T00:16:45.345Z,20.02
2023-07-29T00:16:55.677Z,19.99
2023-07-29T00:17:05.991Z,20.02
2023-07-29T00:17:16.280Z,19.99
2023-07-29T00:17:26.589Z,19.99
2023-07-29T00:17:36.840Z,19.97
2023-07-29T00:17:47.129Z,19.99
2023-07-29T00:17:57.462Z,19.97
2023-07-29T00:18:07.741Z,19.99
2023-07-29T00:18:17.968Z,20.00
2023-07-29T00:18:28.248Z,19.97
2023-07-29T00:18:38.514Z,19.97
2023-07-29T00:18:48.769Z,19.99
2023-07-29T00:18:59.061Z,19.99
2023-07-29T00:19:09.612Z,19.99
2023-07-29T00:19:19.650Z,19.97
2023-07-29T00:19:29.918Z,19.99
2023-07-29T00:19:40.170Z,19.97
2023-07-29T00:19:50.434Z,19.97
2023-07-29T00:20:00.696Z,19.97
2023-07-29T00:20:10.977Z,19.99
2023-07-29T00:20:21.245Z,19.97
2023-07-29T00:20:31.511Z,19.97
2023-07-29T00:20:41.795Z,19.99
2023-07-29T00:20:52.143Z,19.99
2023-07-29T00:21:02.433Z,19.99
2023-07-29T00:21:12.707Z,19.99
2023-07-29T00:21:22.948Z,19.97
2023-07-29T00:21:33.208Z,19.97
2023-07-29T00:21:43.478Z,19.96
2023-07-29T00:21:53.733Z,19.99
2023-07-29T00:22:03.996Z,19.97
2023-07-29T00:22:14.257Z,19.97
2023-07-29T00:22:24.519Z,19.99
2023-07-29T00:22:34.818Z,19.97
2023-07-29T00:22:45.070Z,19.97
2023-07-29T00:22:55.392Z,19.96
2023-07-29T00:23:05.698Z,19.97
2023-07-29T00:23:15.985Z,19.96
2023-07-29T00:23:26.245Z,19.97
2023-07-29T00:23:36.511Z,19.97
2023-07-29T00:23:46.768Z,19.96
2023-07-29T00:23:58.697Z,19.96
2023-07-29T00:24:07.448Z,19.96
2023-07-29T00:24:17.724Z,19.96
2023-07-29T00:24:27.969Z,19.94
2023-07-29T00:24:38.230Z,19.96
2023-07-29T00:24:48.510Z,19.94
2023-07-29T00:24:58.824Z,19.94
2023-07-29T00:25:09.073Z,19.96
2023-07-29T00:25:19.336Z,19.97
2023-07-29T00:25:29.644Z,19.94
2023-07-29T00:25:39.884Z,19.94
2023-07-29T00:25:50.131Z,19.94
2023-07-29T00:26:00.390Z,19.94
2023-07-29T00:26:10.653Z,19.94
2023-07-29T00:26:20.946Z,19.94
2023-07-29T00:26:31.199Z,19.94
2023-07-29T00:26:41.473Z,19.94
2023-07-29T00:26:51.719Z,19.94
2023-07-29T00:27:01.980Z,19.94
2023-07-29T00:27:12.257Z,19.94
2023-07-29T00:27:22.514Z,19.94
2023-07-29T00:27:32.852Z,19.94
2023-07-29T00:27:43.125Z,19.94
2023-07-29T00:27:53.425Z,19.94
2023-07-29T00:28:03.720Z,19.92
2023-07-29T00:28:14.498Z,19.93
2023-07-29T00:28:24.340Z,19.92
2023-07-29T00:28:34.622Z,19.93
2023-07-29T00:28:44.916Z,19.93
2023-07-29T00:28:55.185Z,19.93
2023-07-29T00:29:05.471Z,19.93
2023-07-29T00:29:15.745Z,19.93
2023-07-29T00:29:25.996Z,19.93
2023-07-29T00:29:36.275Z,19.92
2023-07-29T00:29:46.536Z,19.92
2023-07-29T00:29:56.821Z,19.92
2023-07-29T00:30:07.076Z,19.94
2023-07-29T00:30:17.346Z,19.92
2023-07-29T00:30:27.688Z,19.92
2023-07-29T00:30:37.981Z,19.93
2023-07-29T00:30:48.313Z,19.92
2023-07-29T00:30:58.594Z,19.90
2023-07-29T00:31:08.888Z,19.92
2023-07-29T00:31:19.212Z,19.92
2023-07-29T00:31:29.530Z,19.90
2023-07-29T00:31:39.805Z,19.90
2023-07-29T00:31:50.172Z,19.93
2023-07-29T00:32:00.512Z,19.94
2023-07-29T00:32:10.811Z,19.90
2023-07-29T00:32:21.070Z,19.92
2023-07-29T00:32:31.372Z,19.89
2023-07-29T00:32:41.634Z,19.92
2023-07-29T00:32:51.932Z,19.90
2023-07-29T00:33:02.342Z,19.93
2023-07-29T00:33:12.453Z,19.90
2023-07-29T00:33:22.703Z,19.90
2023-07-29T00:33:32.960Z,19.90
2023-07-29T00:33:43.228Z,19.87
2023-07-29T00:33:53.488Z,19.90
2023-07-29T00:34:03.766Z,19.90
2023-07-29T00:34:14.009Z,19.89
2023-07-29T00:34:24.273Z,19.90
2023-07-29T00:34:34.533Z,19.89
2023-07-29T00:34:44.824Z,19.87
2023-07-29T00:34:55.072Z,19.89
2023-07-29T00:35:05.323Z,19.89
2023-07-29T00:35:15.595Z,19.92
2023-07-29T00:35:25.845Z,19.90
2023-07-29T00:35:36.110Z,19.89
2023-07-29T00:35:46.364Z,19.89
2023-07-29T00:35:56.629Z,19.89
2023-07-29T00:36:06.903Z,19.89
2023-07-29T00:36:17.186Z,19.90
2023-07-29T00:36:27.439Z,19.90
2023-07-29T00:36:38.034Z,19.89
2023-07-29T00:36:48.110Z,19.90
2023-07-29T00:36:58.391Z,19.87
2023-07-29T00:37:08.678Z,19.87
2023-07-29T00:37:18.944Z,19.87
2023-07-29T00:37:29.180Z,19.89
2023-07-29T00:37:39.459Z,19.85
2023-07-29T00:37:49.725Z,19.87
2023-07-29T00:38:00.361Z,19.89
2023-07-29T00:38:10.423Z,19.85
2023-07-29T00:38:20.663Z,19.87
2023-07-29T00:38:30.930Z,19.85
2023-07-29T00:38:41.182Z,19.85
2023-07-29T00:38:51.437Z,19.85
2023-07-29T00:39:01.703Z,19.85
2023-07-29T00:39:11.964Z,19.87
2023-07-29T00:39:22.241Z,19.87
2023-07-29T00:39:32.485Z,19.85
2023-07-29T00:39:42.738Z,19.87
2023-07-29T00:39:53.018Z,19.87
2023-07-29T00:40:03.260Z,19.87
2023-07-29T00:40:13.532Z,19.85
2023-07-29T00:40:23.796Z,19.85
2023-07-29T00:40:34.048Z,19.85
2023-07-29T00:40:44.323Z,19.85
2023-07-29T00:40:54.575Z,19.85
2023-07-29T00:41:04.845Z,19.87
2023-07-29T00:41:15.126Z,19.85
2023-07-29T00:41:25.383Z,19.84
2023-07-29T00:41:35.648Z,19.84
2023-07-29T00:41:46.241Z,19.84
2023-07-29T00:41:56.287Z,19.84
2023-07-29T00:42:06.548Z,19.84
2023-07-29T00:42:16.811Z,19.82
2023-07-29T00:42:27.086Z,19.85
2023-07-29T00:42:37.335Z,19.84
2023-07-29T00:42:47.589Z,19.84
2023-07-29T00:42:57.848Z,19.84
2023-07-29T00:43:08.123Z,19.84
2023-07-29T00:43:18.370Z,19.84
2023-07-29T00:43:28.634Z,19.84
2023-07-29T00:43:38.894Z,19.82
2023-07-29T00:43:49.151Z,19.85
2023-07-29T00:43:59.426Z,19.82
2023-07-29T00:44:09.698Z,19.84
2023-07-29T00:44:20.058Z,19.84
2023-07-29T00:44:30.353Z,19.84
2023-07-29T00:44:40.604Z,19.84
2023-07-29T00:44:50.857Z,19.82
2023-07-29T00:45:01.130Z,19.84
2023-07-29T00:45:11.381Z,19.84
2023-07-29T00:45:21.658Z,19.82
2023-07-29T00:45:31.925Z,19.81
2023-07-29T00:45:42.182Z,19.84
2023-07-29T00:45:52.484Z,19.82
2023-07-29T00:46:02.769Z,19.82
2023-07-29T00:46:13.044Z,19.81
2023-07-29T00:46:23.369Z,19.82
2023-07-29T00:46:34.260Z,19.81
2023-07-29T00:46:43.895Z,19.81
2023-07-29T00:46:54.131Z,19.81
2023-07-29T00:47:04.419Z,19.82
2023-07-29T00:47:14.669Z,19.82
2023-07-29T00:47:26.103Z,19.81
2023-07-29T00:47:35.335Z,19.79
2023-07-29T00:47:45.660Z,19.82
2023-07-29T00:47:56.049Z,19.79
2023-07-29T00:48:06.385Z,19.81
2023-07-29T00:48:16.693Z,19.81
2023-07-29T00:48:27.253Z,19.79
2023-07-29T00:48:37.371Z,19.79
2023-07-29T00:48:47.742Z,19.78
2023-07-29T00:48:58.016Z,19.81
2023-07-29T00:49:08.314Z,19.78
2023-07-29T00:49:18.584Z,19.78
2023-07-29T00:49:28.842Z,19.78
2023-07-29T00:49:39.103Z,19.81
2023-07-29T00:49:49.360Z,19.78
2023-07-29T00:49:59.613Z,19.79
2023-07-29T00:50:09.883Z,19.78
2023-07-29T00:50:20.183Z,19.79
2023-07-29T00:50:30.468Z,19.79
2023-07-29T00:50:40.731Z,19.79
2023-07-29T00:50:51.000Z,19.79
2023-07-29T00:51:01.297Z,19.78
2023-07-29T00:51:11.568Z,19.78
2023-07-29T00:51:21.841Z,19.79
2023-07-29T00:51:32.112Z,19.78
2023-07-29T00:51:42.369Z,19.79
2023-07-29T00:51:52.628Z,19.79
2023-07-29T00:52:02.893Z,19.77
2023-07-29T00:52:14.280Z,19.77
2023-07-29T00:52:23.470Z,19.78
2023-07-29T00:52:33.784Z,19.77
2023-07-29T00:52:44.089Z,19.78
2023-07-29T00:52:54.321Z,19.77
2023-07-29T00:53:04.596Z,19.77
2023-07-29T00:53:14.854Z,19.77
2023-07-29T00:53:25.124Z,19.78
2023-07-29T00:53:35.420Z,19.78
2023-07-29T00:53:45.675Z,19.77
2023-07-29T00:53:55.980Z,19.77
2023-07-29T00:54:06.229Z,19.77
2023-07-29T00:54:16.512Z,19.77
2023-07-29T00:54:26.771Z,19.75
2023-07-29T00:54:37.021Z,19.77
2023-07-29T00:54:47.279Z,19.75
2023-07-29T00:54:57.547Z,19.74
2023-07-29T00:55:07.828Z,19.75
2023-07-29T00:55:18.112Z,19.77
2023-07-29T00:55:28.444Z,19.74
2023-07-29T00:55:38.825Z,19.75
2023-07-29T00:55:49.113Z,19.75
2023-07-29T00:55:59.337Z,19.75
2023-07-29T00:56:09.632Z,19.75
2023-07-29T00:56:19.888Z,19.74
2023-07-29T00:56:30.237Z,19.74
2023-07-29T00:56:40.533Z,19.74
2023-07-29T00:56:50.833Z,19.74
2023-07-29T00:57:01.054Z,19.74
2023-07-29T00:57:11.312Z,19.72
2023-07-29T00:57:21.581Z,19.72
2023-07-29T00:57:31.870Z,19.75
2023-07-29T00:57:42.145Z,19.72
2023-07-29T00:57:52.431Z,19.74
2023-07-29T00:58:02.661Z,19.74
2023-07-29T00:58:12.937Z,19.74
2023-07-29T00:58:23.196Z,19.72
2023-07-29T00:58:33.478Z,19.74
2023-07-29T00:58:43.732Z,19.72
2023-07-29T00:58:53.984Z,19.72
2023-07-29T00:59:04.277Z,19.72
2023-07-29T00:59:14.524Z,19.72
2023-07-29T00:59:24.814Z,19.72
2023-07-29T00:59:35.048Z,19.72
2023-07-29T00:59:45.337Z,19.72
2023-07-29T00:59:55.585Z,19.72
2023-07-29T01:00:05.867Z,19.74
2023-07-29T01:00:16.169Z,19.72
2023-07-29T01:00:26.437Z,19.71
2023-07-29T01:00:36.725Z,19.72
2023-07-29T01:00:46.981Z,19.72
2023-07-29T01:00:57.244Z,19.71
2023-07-29T01:01:07.511Z,19.72
2023-07-29T01:01:17.791Z,19.71
2023-07-29T01:01:28.072Z,19.71
2023-07-29T01:01:38.368Z,19.71
2023-07-29T01:01:48.667Z,19.71
2023-07-29T01:01:58.955Z,19.70
2023-07-29T01:02:09.201Z,19.71
2023-07-29T01:02:19.460Z,19.72
2023-07-29T01:02:29.776Z,19.71
2023-07-29T01:02:40.094Z,19.70
2023-07-29T01:02:50.471Z,19.71
2023-07-29T01:03:00.826Z,19.70
2023-07-29T01:03:11.233Z,19.71
2023-07-29T01:03:21.418Z,19.71
2023-07-29T01:03:31.747Z,19.70
2023-07-29T01:03:42.144Z,19.67
2023-07-29T01:03:52.386Z,19.71
2023-07-29T01:04:02.835Z,19.71
2023-07-29T01:04:13.107Z,19.70
2023-07-29T01:04:23.397Z,19.70
2023-07-29T01:04:33.671Z,19.70
2023-07-29T01:04:43.950Z,19.67
2023-07-29T01:04:54.232Z,19.67
2023-07-29T01:05:04.551Z,19.70
2023-07-29T01:05:14.838Z,19.70
2023-07-29T01:05:25.107Z,19.70
2023-07-29T01:05:35.335Z,19.67
2023-07-29T01:05:45.592Z,19.67
2023-07-29T01:05:55.852Z,19.70
2023-07-29T01:06:06.142Z,19.67
2023-07-29T01:06:16.409Z,19.71
2023-07-29T01:06:26.646Z,19.70
2023-07-29T01:06:37.139Z,19.70
2023-07-29T01:06:47.281Z,19.66
2023-07-29T01:06:57.533Z,19.67
2023-07-29T01:07:07.811Z,19.67
2023-07-29T01:07:18.088Z,19.67
2023-07-29T01:07:28.352Z,19.66
2023-07-29T01:07:38.619Z,19.66
2023-07-29T01:07:48.874Z,19.66
2023-07-29T01:07:59.141Z,19.66
2023-07-29T01:08:09.401Z,19.67
2023-07-29T01:08:19.665Z,19.67
2023-07-29T01:08:29.944Z,19.67
2023-07-29T01:08:40.241Z,19.66
2023-07-29T01:08:50.488Z,19.66
2023-07-29T01:09:00.809Z,19.66
2023-07-29T01:09:11.102Z,19.66
2023-07-29T01:09:21.385Z,19.67
2023-07-29T01:09:31.675Z,19.64
2023-07-29T01:09:41.937Z,19.64
2023-07-29T01:09:52.193Z,19.66
2023-07-29T01:10:02.464Z,19.67
2023-07-29T01:10:12.731Z,19.64
2023-07-29T01:10:22.981Z,19.66
2023-07-29T01:10:33.243Z,19.66
2023-07-29T01:10:43.501Z,19.64
2023-07-29T01:10:53.787Z,19.64
2023-07-29T01:11:04.072Z,19.66
2023-07-29T01:11:14.359Z,19.64
2023-07-29T01:11:24.607Z,19.64
2023-07-29T01:11:34.874Z,19.66
2023-07-29T01:11:45.187Z,19.64
2023-07-29T01:11:55.508Z,19.66
2023-07-29T01:12:05.833Z,19.63
2023-07-29T01:12:16.116Z,19.64
2023-07-29T01:12:26.445Z,19.64
2023-07-29T01:12:36.729Z,19.64
2023-07-29T01:12:47.286Z,19.64
2023-07-29T01:12:57.322Z,19.64
2023-07-29T01:13:07.590Z,19.64
2023-07-29T01:13:17.848Z,19.67
2023-07-29T01:13:28.107Z,19.66
2023-07-29T01:13:38.387Z,19.64
2023-07-29T01:13:48.658Z,19.64
2023-07-29T01:13:58.939Z,19.64
2023-07-29T01:14:09.198Z,19.66
2023-07-29T01:14:19.460Z,19.64
2023-07-29T01:14:29.728Z,19.64
2023-07-29T01:14:39.987Z,19.66
2023-07-29T01:14:50.243Z,19.64
2023-07-29T01:15:00.522Z,19.64
2023-07-29T01:15:10.777Z,19.64
2023-07-29T01:15:21.157Z,19.62
2023-07-29T01:15:31.397Z,19.64
2023-07-29T01:15:41.675Z,19.64
2023-07-29T01:15:51.954Z,19.63
2023-07-29T01:16:02.294Z,19.64
2023-07-29T01:16:12.582Z,19.63
2023-07-29T01:16:22.865Z,19.63
2023-07-29T01:16:33.137Z,19.63
2023-07-29T01:16:43.376Z,19.63
2023-07-29T01:16:53.639Z,19.63
2023-07-29T01:17:03.897Z,19.62
2023-07-29T01:17:14.178Z,19.63
2023-07-29T01:17:24.440Z,19.63
2023-07-29T01:17:34.708Z,19.63
2023-07-29T01:17:45.011Z,19.62
2023-07-29T01:17:55.325Z,19.62
2023-07-29T01:18:05.599Z,19.63
2023-07-29T01:18:15.918Z,19.64
2023-07-29T01:18:26.197Z,19.64
2023-07-29T01:18:36.467Z,19.63
2023-07-29T01:18:46.741Z,19.62
2023-07-29T01:18:57.016Z,19.60
2023-07-29T01:19:07.284Z,19.62
2023-07-29T01:19:17.560Z,19.63
2023-07-29T01:19:27.816Z,19.63
2023-07-29T01:19:38.081Z,19.63
2023-07-29T01:19:48.348Z,19.63
2023-07-29T01:19:58.612Z,19.62
2023-07-29T01:20:08.884Z,19.63
2023-07-29T01:20:19.131Z,19.63
2023-07-29T01:20:29.402Z,19.62
2023-07-29T01:20:39.650Z,19.64
2023-07-29T01:20:49.921Z,19.63
2023-07-29T01:21:00.184Z,19.62
2023-07-29T01:21:10.442Z,19.62
2023-07-29T01:21:20.696Z,19.62
2023-07-29T01:21:30.959Z,19.63
2023-07-29T01:21:41.225Z,19.60
2023-07-29T01:21:51.489Z,19.62
2023-07-29T01:22:01.741Z,19.60
2023-07-29T01:22:12.018Z,19.63
2023-07-29T01:22:22.264Z,19.62
2023-07-29T01:22:32.538Z,19.63
2023-07-29T01:22:42.790Z,19.60
2023-07-29T01:22:53.060Z,19.63
2023-07-29T01:23:03.336Z,19.62
2023-07-29T01:23:13.629Z,19.62
2023-07-29T01:23:23.895Z,19.62
2023-07-29T01:23:34.142Z,19.62
2023-07-29T01:23:44.404Z,19.62
2023-07-29T01:23:54.718Z,19.62
2023-07-29T01:24:04.981Z,19.60
2023-07-29T01:24:15.237Z,19.62
2023-07-29T01:24:25.503Z,19.63
2023-07-29T01:24:35.789Z,19.63
2023-07-29T01:24:46.034Z,19.60
2023-07-29T01:24:56.285Z,19.60
2023-07-29T01:25:06.559Z,19.62
2023-07-29T01:25:16.824Z,19.60
2023-07-29T01:25:27.076Z,19.60
2023-07-29T01:25:37.354Z,19.59
2023-07-29T01:25:47.615Z,19.60
2023-07-29T01:25:57.893Z,19.59
2023-07-29T01:26:08.139Z,19.60
2023-07-29T01:26:18.404Z,19.60
2023-07-29T01:26:28.658Z,19.60
2023-07-29T01:26:39.354Z,19.59
2023-07-29T01:26:49.299Z,19.59
2023-07-29T01:26:59.558Z,19.57
2023-07-29T01:27:09.833Z,19.60
2023-07-29T01:27:20.107Z,19.60
2023-07-29T01:27:30.388Z,19.59
2023-07-29T01:27:40.664Z,19.60
2023-07-29T01:27:50.952Z,19.60
2023-07-29T01:28:01.244Z,19.57
2023-07-29T01:28:11.525Z,19.59
2023-07-29T01:28:21.748Z,19.59
2023-07-29T01:28:32.050Z,19.57
2023-07-29T01:28:42.368Z,19.59
2023-07-29T01:28:52.643Z,19.60
2023-07-29T01:29:02.906Z,19.59
2023-07-29T01:29:13.151Z,19.59
2023-07-29T01:29:23.414Z,19.59
2023-07-29T01:29:33.674Z,19.59
2023-07-29T01:29:43.934Z,19.57
2023-07-29T01:29:54.227Z,19.59
2023-07-29T01:30:04.488Z,19.59
2023-07-29T01:30:17.980Z,19.57
2023-07-29T01:30:25.124Z,19.59
2023-07-29T01:30:35.393Z,19.56
2023-07-29T01:30:45.653Z,19.59
2023-07-29T01:30:55.914Z,19.57
2023-07-29T01:31:06.187Z,19.59
2023-07-29T01:31:16.458Z,19.57
2023-07-29T01:31:26.749Z,19.57
2023-07-29T01:31:37.037Z,19.57
2023-07-29T01:31:47.315Z,19.56
2023-07-29T01:31:57.736Z,19.57
2023-07-29T01:32:07.957Z,19.57
2023-07-29T01:32:18.280Z,19.57
2023-07-29T01:32:28.599Z,19.56
2023-07-29T01:32:38.896Z,19.56
2023-07-29T01:32:49.183Z,19.57
2023-07-29T01:32:59.440Z,19.56
2023-07-29T01:33:09.729Z,19.57
2023-07-29T01:33:19.970Z,19.57
2023-07-29T01:33:30.269Z,19.57
2023-07-29T01:33:40.536Z,19.57
2023-07-29T01:33:50.801Z,19.57
2023-07-29T01:34:01.066Z,19.56
2023-07-29T01:34:11.333Z,19.55
2023-07-29T01:34:21.600Z,19.55
2023-07-29T01:34:31.878Z,19.57
2023-07-29T01:34:42.197Z,19.56
2023-07-29T01:34:52.421Z,19.57
2023-07-29T01:35:02.691Z,19.56
2023-07-29T01:35:12.970Z,19.55
2023-07-29T01:35:23.244Z,19.56
2023-07-29T01:35:33.515Z,19.56
2023-07-29T01:35:43.785Z,19.55
2023-07-29T01:35:54.036Z,19.55
2023-07-29T01:36:04.308Z,19.55
2023-07-29T01:36:14.559Z,19.56
2023-07-29T01:36:24.829Z,19.56
2023-07-29T01:36:35.482Z,19.56
2023-07-29T01:36:47.541Z,19.56
2023-07-29T01:36:55.768Z,19.56
2023-07-29T01:37:06.035Z,19.56
2023-07-29T01:37:16.323Z,19.56
2023-07-29T01:37:26.584Z,19.56
2023-07-29T01:37:36.849Z,19.55
2023-07-29T01:37:47.110Z,19.56
2023-07-29T01:37:57.371Z,19.53
2023-07-29T01:38:07.630Z,19.55
2023-07-29T01:38:17.890Z,19.55
2023-07-29T01:38:28.153Z,19.55
2023-07-29T01:38:38.425Z,19.55
2023-07-29T01:38:48.674Z,19.55
2023-07-29T01:38:58.978Z,19.55
2023-07-29T01:39:09.235Z,19.55
2023-07-29T01:39:19.487Z,19.55
2023-07-29T01:39:29.748Z,19.55
2023-07-29T01:39:40.039Z,19.56
2023-07-29T01:39:50.271Z,19.56
2023-07-29T01:40:00.546Z,19.55
2023-07-29T01:40:10.798Z,19.53
2023-07-29T01:40:21.056Z,19.56
2023-07-29T01:40:31.316Z,19.55
2023-07-29T01:40:41.585Z,19.55
2023-07-29T01:40:51.849Z,19.53
2023-07-29T01:41:02.100Z,19.53
2023-07-29T01:41:12.376Z,19.56
2023-07-29T01:41:22.630Z,19.55
2023-07-29T01:41:32.893Z,19.53
2023-07-29T01:41:43.158Z,19.55
2023-07-29T01:41:53.422Z,19.53
2023-07-29T01:42:03.695Z,19.55
2023-07-29T01:42:13.959Z,19.55
2023-07-29T01:42:24.223Z,19.53
2023-07-29T01:42:34.482Z,19.55
2023-07-29T01:42:44.754Z,19.53
2023-07-29T01:42:55.020Z,19.55
2023-07-29T01:43:05.276Z,19.53
2023-07-29T01:43:15.526Z,19.53
2023-07-29T01:43:25.795Z,19.53
2023-07-29T01:43:36.063Z,19.53
2023-07-29T01:43:46.332Z,19.53
2023-07-29T01:43:56.601Z,19.53
2023-07-29T01:44:06.853Z,19.52
2023-07-29T01:44:17.122Z,19.52
2023-07-29T01:44:27.590Z,19.53
2023-07-29T01:44:37.614Z,19.49
2023-07-29T01:44:47.885Z,19.53
2023-07-29T01:44:58.140Z,19.53
2023-07-29T01:45:08.455Z,19.52
2023-07-29T01:45:18.723Z,19.52
2023-07-29T01:45:28.975Z,19.52
2023-07-29T01:45:39.309Z,19.49
2023-07-29T01:45:49.675Z,19.53
2023-07-29T01:45:59.925Z,19.53
2023-07-29T01:46:10.224Z,19.53
2023-07-29T01:46:20.506Z,19.52
2023-07-29T01:46:30.785Z,19.52
2023-07-29T01:46:41.047Z,19.52
2023-07-29T01:46:51.318Z,19.52
2023-07-29T01:47:01.591Z,19.53
2023-07-29T01:47:11.858Z,19.52
2023-07-29T01:47:22.103Z,19.49
2023-07-29T01:47:32.427Z,19.52
2023-07-29T01:47:42.722Z,19.49
2023-07-29T01:47:53.066Z,19.52
2023-07-29T01:48:03.395Z,19.49
2023-07-29T01:48:13.666Z,19.49
2023-07-29T01:48:23.916Z,19.52
2023-07-29T01:48:34.179Z,19.52
2023-07-29T01:48:44.449Z,19.49
2023-07-29T01:48:54.702Z,19.52
2023-07-29T01:49:04.970Z,19.49
2023-07-29T01:49:15.226Z,19.49
2023-07-29T01:49:25.508Z,19.49
2023-07-29T01:49:35.764Z,19.52
2023-07-29T01:49:46.114Z,19.49
2023-07-29T01:49:56.424Z,19.49
2023-07-29T01:50:06.684Z,19.49
2023-07-29T01:50:16.915Z,19.49
2023-07-29T01:50:27.249Z,19.52
2023-07-29T01:50:37.488Z,19.49
2023-07-29T01:50:47.739Z,19.48
2023-07-29T01:50:58.021Z,19.49
2023-07-29T01:51:08.283Z,19.48
2023-07-29T01:51:18.581Z,19.52
2023-07-29T01:51:28.985Z,19.48
2023-07-29T01:51:39.250Z,19.49
2023-07-29T01:51:49.506Z,19.49
2023-07-29T01:51:59.772Z,19.49
2023-07-29T01:52:10.031Z,19.47
2023-07-29T01:52:20.308Z,19.48
2023-07-29T01:52:30.555Z,19.48
2023-07-29T01:52:40.820Z,19.47
2023-07-29T01:52:51.080Z,19.48
2023-07-29T01:53:01.354Z,19.48
2023-07-29T01:53:11.618Z,19.48
2023-07-29T01:53:21.870Z,19.48
2023-07-29T01:53:32.144Z,19.49
2023-07-29T01:53:42.406Z,19.47
2023-07-29T01:53:52.664Z,19.48
2023-07-29T01:54:02.944Z,19.48
2023-07-29T01:54:13.191Z,19.49
2023-07-29T01:54:23.443Z,19.47
2023-07-29T01:54:33.705Z,19.48
2023-07-29T01:54:44.004Z,19.45
2023-07-29T01:54:54.237Z,19.47
2023-07-29T01:55:04.628Z,19.47
2023-07-29T01:55:14.906Z,19.47
2023-07-29T01:55:25.264Z,19.48
2023-07-29T01:55:35.568Z,19.47
2023-07-29T01:55:45.923Z,19.48
2023-07-29T01:55:56.062Z,19.47
2023-07-29T01:56:06.307Z,19.47
2023-07-29T01:56:16.610Z,19.47
2023-07-29T01:56:26.881Z,19.45
2023-07-29T01:56:37.399Z,19.47
2023-07-29T01:56:47.563Z,19.45
2023-07-29T01:56:57.837Z,19.45
2023-07-29T01:57:08.097Z,19.47
2023-07-29T01:57:18.359Z,19.47
2023-07-29T01:57:29.146Z,19.47
2023-07-29T01:57:39.161Z,19.45
2023-07-29T01:57:49.428Z,19.47
2023-07-29T01:58:00.874Z,19.47
2023-07-29T01:58:10.058Z,19.45
2023-07-29T01:58:20.326Z,19.45
2023-07-29T01:58:30.599Z,19.47
2023-07-29T01:58:41.016Z,19.45
2023-07-29T01:58:51.265Z,19.47
2023-07-29T01:59:01.526Z,19.45
2023-07-29T01:59:11.797Z,19.47
2023-07-29T01:59:22.060Z,19.44
2023-07-29T01:59:32.318Z,19.45
2023-07-29T01:59:42.588Z,19.45
2023-07-29T01:59:52.844Z,19.44
2023-07-29T02:00:03.124Z,19.45
2023-07-29T02:00:13.436Z,19.47
2023-07-29T02:00:23.705Z,19.44
2023-07-29T02:00:33.977Z,19.44
2023-07-29T02:00:44.258Z,19.45
2023-07-29T02:00:54.537Z,19.47
2023-07-29T02:01:04.809Z,19.45
2023-07-29T02:01:16.499Z,19.44
2023-07-29T02:01:25.421Z,19.45
2023-07-29T02:01:35.737Z,19.42
2023-07-29T02:01:46.054Z,19.45
2023-07-29T02:01:56.316Z,19.44
2023-07-29T02:02:06.584Z,19.47
2023-07-29T02:02:16.840Z,19.45
2023-07-29T02:02:27.143Z,19.44
2023-07-29T02:02:37.400Z,19.42
2023-07-29T02:02:47.721Z,19.45
2023-07-29T02:02:58.008Z,19.44
2023-07-29T02:03:08.312Z,19.44
2023-07-29T02:03:18.547Z,19.44
2023-07-29T02:03:28.816Z,19.44
2023-07-29T02:03:39.076Z,19.45
2023-07-29T02:03:49.339Z,19.42
2023-07-29T02:03:59.643Z,19.42
2023-07-29T02:04:09.944Z,19.45
2023-07-29T02:04:20.241Z,19.42
2023-07-29T02:04:30.571Z,19.42
2023-07-29T02:04:40.891Z,19.44
2023-07-29T02:04:51.176Z,19.44
2023-07-29T02:05:01.442Z,19.42
2023-07-29T02:05:11.711Z,19.42
2023-07-29T02:05:21.985Z,19.42
2023-07-29T02:05:34.335Z,19.41
2023-07-29T02:05:42.649Z,19.42
2023-07-29T02:05:52.915Z,19.41
2023-07-29T02:06:03.204Z,19.44
2023-07-29T02:06:13.444Z,19.44
2023-07-29T02:06:23.711Z,19.42
2023-07-29T02:06:44.371Z,19.44
2023-07-29T02:06:54.632Z,19.44
2023-07-29T02:07:04.897Z,19.42
2023-07-29T02:07:15.178Z,19.41
2023-07-29T02:07:25.416Z,19.42
2023-07-29T02:07:35.677Z,19.44
2023-07-29T02:07:45.956Z,19.42
2023-07-29T02:07:56.220Z,19.42
2023-07-29T02:08:06.458Z,19.42
2023-07-29T02:08:16.730Z,19.44
2023-07-29T02:08:26.987Z,19.42
2023-07-29T02:08:37.251Z,19.41
2023-07-29T02:08:47.510Z,19.42
2023-07-29T02:08:57.777Z,19.41
2023-07-29T02:09:08.047Z,19.42
2023-07-29T02:09:19.178Z,19.41
2023-07-29T02:09:28.700Z,19.44
2023-07-29T02:09:38.979Z,19.42
2023-07-29T02:09:49.267Z,19.42
2023-07-29T02:09:59.634Z,19.42
2023-07-29T02:10:09.914Z,19.42
2023-07-29T02:10:20.210Z,19.42
2023-07-29T02:10:30.451Z,19.42
2023-07-29T02:10:40.737Z,19.42
2023-07-29T02:10:51.002Z,19.42
2023-07-29T02:11:01.293Z,19.44
2023-07-29T02:11:11.562Z,19.41
2023-07-29T02:11:21.836Z,19.42
2023-07-29T02:11:32.073Z,19.41
2023-07-29T02:11:42.334Z,19.42
2023-07-29T02:11:52.596Z,19.41
2023-07-29T02:12:02.881Z,19.41
2023-07-29T02:12:13.173Z,19.44
2023-07-29T02:12:23.439Z,19.41
2023-07-29T02:12:33.767Z,19.41